sensor_id;sensor_type;location;lat;lon;timestamp;P1;durP1;ratioP1;P2;durP2;ratioP2
73428;SDS011;61643;49.564;17.412;2023-07-30T00:02:21;8.98;;;2.03;;
73428;SDS011;61643;49.564;17.412;2023-07-30T00:04:47;5.68;;;2.08;;
73428;SDS011;61643;49.564;17.412;2023-07-30T00:07:13;8.00;;;2.17;;
73428;SDS011;61643;49.564;17.412;2023-07-30T00:09:40;9.43;;;2.10;;
73428;SDS011;61643;49.564;17.412;2023-07-30T00:12:06;8.57;;;2.35;;
73428;SDS011;61643;49.564;17.412;2023-07-30T00:14:33;7.07;;;2.08;;
73428;SDS011;61643;49.564;17.412;2023-07-30T00:17:00;7.65;;;2.10;;
73428;SDS011;61643;49.564;17.412;2023-07-30T00:19:27;7.45;;;2.20;;
73428;SDS011;61643;49.564;17.412;2023-07-30T00:21:53;7.93;;;2.00;;
73428;SDS011;61643;49.564;17.412;2023-07-30T00:24:19;4.68;;;1.88;;
73428;SDS011;61643;49.564;17.412;2023-07-30T00:26:44;5.80;;;1.88;;
73428;SDS011;61643;49.564;17.412;2023-07-30T00:29:10;6.25;;;1.83;;
73428;SDS011;61643;49.564;17.412;2023-07-30T00:31:36;3.13;;;2.05;;
73428;SDS011;61643;49.564;17.412;2023-07-30T00:34:02;8.20;;;1.98;;
73428;SDS011;61643;49.564;17.412;2023-07-30T00:36:28;4.88;;;2.05;;
73428;SDS011;61643;49.564;17.412;2023-07-30T00:38:54;6.88;;;2.20;;
73428;SDS011;61643;49.564;17.412;2023-07-30T00:41:20;7.15;;;2.22;;
73428;SDS011;61643;49.564;17.412;2023-07-30T00:43:46;8.48;;;2.15;;
73428;SDS011;61643;49.564;17.412;2023-07-30T00:46:12;7.20;;;2.10;;
73428;SDS011;61643;49.564;17.412;2023-07-30T00:48:38;6.57;;;2.17;;
73428;SDS011;61643;49.564;17.412;2023-07-30T00:51:05;4.70;;;2.00;;
73428;SDS011;61643;49.564;17.412;2023-07-30T00:53:33;7.07;;;2.10;;
73428;SDS011;61643;49.564;17.412;2023-07-30T00:55:59;5.28;;;2.20;;
73428;SDS011;61643;49.564;17.412;2023-07-30T00:58:25;4.30;;;1.70;;
73428;SDS011;61643;49.564;17.412;2023-07-30T01:00:52;7.85;;;1.92;;
73428;SDS011;61643;49.564;17.412;2023-07-30T01:03:19;7.65;;;2.47;;
73428;SDS011;61643;49.564;17.412;2023-07-30T01:05:45;8.70;;;2.05;;
73428;SDS011;61643;49.564;17.412;2023-07-30T01:08:11;9.82;;;2.50;;
73428;SDS011;61643;49.564;17.412;2023-07-30T01:10:38;12.43;;;2.45;;
73428;SDS011;61643;49.564;17.412;2023-07-30T01:13:06;8.98;;;2.55;;
73428;SDS011;61643;49.564;17.412;2023-07-30T01:15:35;8.63;;;2.70;;
73428;SDS011;61643;49.564;17.412;2023-07-30T01:18:01;10.13;;;2.72;;
73428;SDS011;61643;49.564;17.412;2023-07-30T01:20:31;12.95;;;2.60;;
73428;SDS011;61643;49.564;17.412;2023-07-30T01:22:58;13.13;;;2.80;;
73428;SDS011;61643;49.564;17.412;2023-07-30T01:25:24;6.40;;;2.15;;
73428;SDS011;61643;49.564;17.412;2023-07-30T01:27:55;5.90;;;2.35;;
73428;SDS011;61643;49.564;17.412;2023-07-30T01:30:27;4.50;;;2.30;;
73428;SDS011;61643;49.564;17.412;2023-07-30T01:32:56;4.85;;;2.00;;
73428;SDS011;61643;49.564;17.412;2023-07-30T01:35:24;2.65;;;1.95;;
73428;SDS011;61643;49.564;17.412;2023-07-30T01:37:52;3.72;;;2.17;;
73428;SDS011;61643;49.564;17.412;2023-07-30T01:40:19;8.70;;;2.10;;
73428;SDS011;61643;49.564;17.412;2023-07-30T01:42:46;3.95;;;2.50;;
73428;SDS011;61643;49.564;17.412;2023-07-30T01:45:13;5.10;;;2.28;;
73428;SDS011;61643;49.564;17.412;2023-07-30T01:47:39;7.10;;;2.47;;
73428;SDS011;61643;49.564;17.412;2023-07-30T01:50:05;7.53;;;2.50;;
73428;SDS011;61643;49.564;17.412;2023-07-30T01:52:31;4.38;;;2.03;;
73428;SDS011;61643;49.564;17.412;2023-07-30T01:54:57;6.60;;;1.98;;
73428;SDS011;61643;49.564;17.412;2023-07-30T01:57:24;4.55;;;2.05;;
73428;SDS011;61643;49.564;17.412;2023-07-30T01:59:50;5.55;;;2.20;;
73428;SDS011;61643;49.564;17.412;2023-07-30T02:02:16;7.30;;;2.17;;
73428;SDS011;61643;49.564;17.412;2023-07-30T02:04:42;4.35;;;1.90;;
73428;SDS011;61643;49.564;17.412;2023-07-30T02:07:08;4.05;;;1.88;;
73428;SDS011;61643;49.564;17.412;2023-07-30T02:09:34;7.72;;;1.77;;
73428;SDS011;61643;49.564;17.412;2023-07-30T02:12:00;5.55;;;2.08;;
73428;SDS011;61643;49.564;17.412;2023-07-30T02:14:26;6.60;;;2.30;;
73428;SDS011;61643;49.564;17.412;2023-07-30T02:16:52;8.50;;;3.05;;
73428;SDS011;61643;49.564;17.412;2023-07-30T02:19:18;8.93;;;3.15;;
73428;SDS011;61643;49.564;17.412;2023-07-30T02:21:44;4.80;;;2.80;;
73428;SDS011;61643;49.564;17.412;2023-07-30T02:24:10;9.38;;;3.22;;
73428;SDS011;61643;49.564;17.412;2023-07-30T02:26:37;6.13;;;3.30;;
73428;SDS011;61643;49.564;17.412;2023-07-30T02:29:04;5.32;;;2.90;;
73428;SDS011;61643;49.564;17.412;2023-07-30T02:31:30;8.40;;;3.00;;
73428;SDS011;61643;49.564;17.412;2023-07-30T02:33:56;8.15;;;3.70;;
73428;SDS011;61643;49.564;17.412;2023-07-30T02:36:23;5.30;;;3.00;;
73428;SDS011;61643;49.564;17.412;2023-07-30T02:38:50;6.88;;;3.38;;
73428;SDS011;61643;49.564;17.412;2023-07-30T02:41:16;6.90;;;3.42;;
73428;SDS011;61643;49.564;17.412;2023-07-30T02:43:42;10.50;;;4.50;;
73428;SDS011;61643;49.564;17.412;2023-07-30T02:46:08;59.78;;;6.30;;
73428;SDS011;61643;49.564;17.412;2023-07-30T02:48:34;23.15;;;5.15;;
73428;SDS011;61643;49.564;17.412;2023-07-30T02:51:00;11.10;;;4.50;;
73428;SDS011;61643;49.564;17.412;2023-07-30T02:53:26;6.65;;;3.63;;
73428;SDS011;61643;49.564;17.412;2023-07-30T02:55:53;8.27;;;3.58;;
73428;SDS011;61643;49.564;17.412;2023-07-30T02:58:19;6.45;;;3.20;;
73428;SDS011;61643;49.564;17.412;2023-07-30T03:00:45;5.85;;;3.45;;
73428;SDS011;61643;49.564;17.412;2023-07-30T03:03:11;6.15;;;2.88;;
73428;SDS011;61643;49.564;17.412;2023-07-30T03:05:36;8.35;;;3.30;;
73428;SDS011;61643;49.564;17.412;2023-07-30T03:08:02;6.82;;;2.60;;
73428;SDS011;61643;49.564;17.412;2023-07-30T03:10:29;5.60;;;2.47;;
73428;SDS011;61643;49.564;17.412;2023-07-30T03:12:55;8.35;;;2.85;;
73428;SDS011;61643;49.564;17.412;2023-07-30T03:15:21;7.35;;;3.00;;
73428;SDS011;61643;49.564;17.412;2023-07-30T03:17:47;11.13;;;2.97;;
73428;SDS011;61643;49.564;17.412;2023-07-30T03:20:12;8.00;;;3.00;;
73428;SDS011;61643;49.564;17.412;2023-07-30T03:22:38;4.97;;;2.35;;
73428;SDS011;61643;49.564;17.412;2023-07-30T03:25:04;6.43;;;2.20;;
73428;SDS011;61643;49.564;17.412;2023-07-30T03:27:31;5.97;;;2.45;;
73428;SDS011;61643;49.564;17.412;2023-07-30T03:29:57;6.85;;;2.30;;
73428;SDS011;61643;49.564;17.412;2023-07-30T03:32:23;2.50;;;2.00;;
73428;SDS011;61643;49.564;17.412;2023-07-30T03:34:48;4.75;;;2.00;;
73428;SDS011;61643;49.564;17.412;2023-07-30T03:37:14;8.75;;;2.45;;
73428;SDS011;61643;49.564;17.412;2023-07-30T03:39:40;3.83;;;2.20;;
73428;SDS011;61643;49.564;17.412;2023-07-30T03:42:06;2.20;;;2.00;;
73428;SDS011;61643;49.564;17.412;2023-07-30T03:44:32;4.90;;;2.00;;
73428;SDS011;61643;49.564;17.412;2023-07-30T03:46:59;3.90;;;2.10;;
73428;SDS011;61643;49.564;17.412;2023-07-30T03:49:25;2.90;;;1.88;;
73428;SDS011;61643;49.564;17.412;2023-07-30T03:51:50;6.53;;;2.25;;
73428;SDS011;61643;49.564;17.412;2023-07-30T03:54:17;9.13;;;2.33;;
73428;SDS011;61643;49.564;17.412;2023-07-30T03:56:43;2.60;;;2.00;;
73428;SDS011;61643;49.564;17.412;2023-07-30T03:59:09;3.67;;;2.00;;
73428;SDS011;61643;49.564;17.412;2023-07-30T04:01:35;4.32;;;2.25;;
73428;SDS011;61643;49.564;17.412;2023-07-30T04:04:01;4.32;;;2.00;;
73428;SDS011;61643;49.564;17.412;2023-07-30T04:06:27;3.92;;;2.47;;
73428;SDS011;61643;49.564;17.412;2023-07-30T04:08:53;6.43;;;2.28;;
73428;SDS011;61643;49.564;17.412;2023-07-30T04:11:19;5.80;;;2.20;;
73428;SDS011;61643;49.564;17.412;2023-07-30T04:13:45;3.67;;;1.83;;
73428;SDS011;61643;49.564;17.412;2023-07-30T04:16:11;5.32;;;2.25;;
73428;SDS011;61643;49.564;17.412;2023-07-30T04:18:36;2.80;;;2.00;;
73428;SDS011;61643;49.564;17.412;2023-07-30T04:21:02;4.07;;;1.70;;
73428;SDS011;61643;49.564;17.412;2023-07-30T04:23:28;4.05;;;1.98;;
73428;SDS011;61643;49.564;17.412;2023-07-30T04:25:54;5.07;;;2.15;;
73428;SDS011;61643;49.564;17.412;2023-07-30T04:28:20;7.40;;;1.98;;
73428;SDS011;61643;49.564;17.412;2023-07-30T04:30:46;2.17;;;1.67;;
73428;SDS011;61643;49.564;17.412;2023-07-30T04:33:12;2.92;;;1.50;;
73428;SDS011;61643;49.564;17.412;2023-07-30T04:35:40;5.47;;;1.83;;
73428;SDS011;61643;49.564;17.412;2023-07-30T04:38:06;8.45;;;1.90;;
73428;SDS011;61643;49.564;17.412;2023-07-30T04:40:32;2.88;;;1.58;;
73428;SDS011;61643;49.564;17.412;2023-07-30T04:42:58;3.05;;;1.83;;
73428;SDS011;61643;49.564;17.412;2023-07-30T04:45:24;2.45;;;1.52;;
73428;SDS011;61643;49.564;17.412;2023-07-30T04:47:50;5.65;;;1.80;;
73428;SDS011;61643;49.564;17.412;2023-07-30T04:50:16;3.58;;;1.60;;
73428;SDS011;61643;49.564;17.412;2023-07-30T04:52:41;2.90;;;1.77;;
73428;SDS011;61643;49.564;17.412;2023-07-30T04:55:08;4.68;;;1.70;;
73428;SDS011;61643;49.564;17.412;2023-07-30T04:57:34;3.50;;;1.95;;
73428;SDS011;61643;49.564;17.412;2023-07-30T05:00:00;2.13;;;1.75;;
73428;SDS011;61643;49.564;17.412;2023-07-30T05:02:26;4.18;;;1.83;;
73428;SDS011;61643;49.564;17.412;2023-07-30T05:04:52;2.35;;;1.48;;
73428;SDS011;61643;49.564;17.412;2023-07-30T05:07:18;1.90;;;1.70;;
73428;SDS011;61643;49.564;17.412;2023-07-30T05:09:44;4.53;;;1.70;;
73428;SDS011;61643;49.564;17.412;2023-07-30T05:12:10;3.13;;;1.75;;
73428;SDS011;61643;49.564;17.412;2023-07-30T05:14:35;6.25;;;1.95;;
73428;SDS011;61643;49.564;17.412;2023-07-30T05:17:01;2.75;;;1.90;;
73428;SDS011;61643;49.564;17.412;2023-07-30T05:19:28;7.07;;;1.90;;
73428;SDS011;61643;49.564;17.412;2023-07-30T05:21:54;5.32;;;1.80;;
73428;SDS011;61643;49.564;17.412;2023-07-30T05:24:20;2.67;;;1.73;;
73428;SDS011;61643;49.564;17.412;2023-07-30T05:26:47;2.90;;;1.67;;
73428;SDS011;61643;49.564;17.412;2023-07-30T05:29:13;3.85;;;1.80;;
73428;SDS011;61643;49.564;17.412;2023-07-30T05:31:38;4.53;;;1.73;;
73428;SDS011;61643;49.564;17.412;2023-07-30T05:34:04;1.60;;;1.50;;
73428;SDS011;61643;49.564;17.412;2023-07-30T05:36:30;3.25;;;1.60;;
73428;SDS011;61643;49.564;17.412;2023-07-30T05:38:56;4.35;;;1.80;;
73428;SDS011;61643;49.564;17.412;2023-07-30T05:41:22;2.53;;;1.30;;
73428;SDS011;61643;49.564;17.412;2023-07-30T05:43:48;2.10;;;1.60;;
73428;SDS011;61643;49.564;17.412;2023-07-30T05:46:14;1.48;;;1.38;;
73428;SDS011;61643;49.564;17.412;2023-07-30T05:48:40;2.67;;;1.63;;
73428;SDS011;61643;49.564;17.412;2023-07-30T05:51:06;2.05;;;1.17;;
73428;SDS011;61643;49.564;17.412;2023-07-30T05:53:32;3.63;;;1.60;;
73428;SDS011;61643;49.564;17.412;2023-07-30T05:55:58;1.95;;;1.75;;
73428;SDS011;61643;49.564;17.412;2023-07-30T05:58:24;2.28;;;1.35;;
73428;SDS011;61643;49.564;17.412;2023-07-30T06:00:50;1.05;;;0.98;;
73428;SDS011;61643;49.564;17.412;2023-07-30T06:03:16;1.58;;;1.27;;
73428;SDS011;61643;49.564;17.412;2023-07-30T06:05:42;1.40;;;1.30;;
73428;SDS011;61643;49.564;17.412;2023-07-30T06:08:08;4.47;;;1.98;;
73428;SDS011;61643;49.564;17.412;2023-07-30T06:10:35;1.80;;;1.00;;
73428;SDS011;61643;49.564;17.412;2023-07-30T06:13:04;1.25;;;1.05;;
73428;SDS011;61643;49.564;17.412;2023-07-30T06:15:31;1.92;;;1.20;;
73428;SDS011;61643;49.564;17.412;2023-07-30T06:17:58;0.93;;;0.85;;
73428;SDS011;61643;49.564;17.412;2023-07-30T06:20:24;2.08;;;1.20;;
73428;SDS011;61643;49.564;17.412;2023-07-30T06:22:50;1.20;;;0.95;;
73428;SDS011;61643;49.564;17.412;2023-07-30T06:25:16;1.48;;;1.10;;
73428;SDS011;61643;49.564;17.412;2023-07-30T06:27:42;1.48;;;1.20;;
73428;SDS011;61643;49.564;17.412;2023-07-30T06:30:08;0.98;;;0.80;;
73428;SDS011;61643;49.564;17.412;2023-07-30T06:32:35;0.90;;;0.90;;
73428;SDS011;61643;49.564;17.412;2023-07-30T06:35:01;1.33;;;1.00;;
73428;SDS011;61643;49.564;17.412;2023-07-30T06:37:28;2.28;;;0.90;;
73428;SDS011;61643;49.564;17.412;2023-07-30T06:39:54;1.15;;;1.05;;
73428;SDS011;61643;49.564;17.412;2023-07-30T06:42:20;2.05;;;1.00;;
73428;SDS011;61643;49.564;17.412;2023-07-30T06:44:46;1.48;;;1.00;;
73428;SDS011;61643;49.564;17.412;2023-07-30T06:47:12;1.10;;;1.00;;
73428;SDS011;61643;49.564;17.412;2023-07-30T06:49:38;2.97;;;0.85;;
73428;SDS011;61643;49.564;17.412;2023-07-30T06:52:04;1.08;;;0.90;;
73428;SDS011;61643;49.564;17.412;2023-07-30T06:54:30;1.80;;;1.00;;
73428;SDS011;61643;49.564;17.412;2023-07-30T06:56:56;3.78;;;1.17;;
73428;SDS011;61643;49.564;17.412;2023-07-30T06:59:22;3.03;;;1.17;;
73428;SDS011;61643;49.564;17.412;2023-07-30T07:01:48;1.00;;;0.90;;
73428;SDS011;61643;49.564;17.412;2023-07-30T07:04:14;1.55;;;1.10;;
73428;SDS011;61643;49.564;17.412;2023-07-30T07:06:40;2.17;;;1.10;;
73428;SDS011;61643;49.564;17.412;2023-07-30T07:09:06;1.73;;;1.20;;
73428;SDS011;61643;49.564;17.412;2023-07-30T07:11:32;4.57;;;1.10;;
73428;SDS011;61643;49.564;17.412;2023-07-30T07:13:58;2.25;;;1.10;;
73428;SDS011;61643;49.564;17.412;2023-07-30T07:16:24;1.98;;;1.00;;
73428;SDS011;61643;49.564;17.412;2023-07-30T07:18:50;2.40;;;1.20;;
73428;SDS011;61643;49.564;17.412;2023-07-30T07:21:16;5.00;;;1.33;;
73428;SDS011;61643;49.564;17.412;2023-07-30T07:23:42;4.72;;;1.20;;
73428;SDS011;61643;49.564;17.412;2023-07-30T07:26:08;4.45;;;1.45;;
73428;SDS011;61643;49.564;17.412;2023-07-30T07:28:34;5.68;;;1.60;;
73428;SDS011;61643;49.564;17.412;2023-07-30T07:31:00;5.40;;;1.92;;
73428;SDS011;61643;49.564;17.412;2023-07-30T07:33:27;3.40;;;2.45;;
73428;SDS011;61643;49.564;17.412;2023-07-30T07:36:02;3.63;;;2.50;;
73428;SDS011;61643;49.564;17.412;2023-07-30T07:38:32;3.20;;;2.33;;
73428;SDS011;61643;49.564;17.412;2023-07-30T07:41:00;3.45;;;2.53;;
73428;SDS011;61643;49.564;17.412;2023-07-30T07:43:27;4.03;;;2.38;;
73428;SDS011;61643;49.564;17.412;2023-07-30T07:45:53;4.55;;;2.40;;
73428;SDS011;61643;49.564;17.412;2023-07-30T07:48:19;4.88;;;2.33;;
73428;SDS011;61643;49.564;17.412;2023-07-30T07:50:45;3.28;;;2.13;;
73428;SDS011;61643;49.564;17.412;2023-07-30T07:53:11;2.75;;;2.00;;
73428;SDS011;61643;49.564;17.412;2023-07-30T07:55:37;1.85;;;1.52;;
73428;SDS011;61643;49.564;17.412;2023-07-30T07:58:03;2.42;;;2.00;;
73428;SDS011;61643;49.564;17.412;2023-07-30T08:00:29;2.40;;;1.70;;
73428;SDS011;61643;49.564;17.412;2023-07-30T08:02:55;1.90;;;1.60;;
73428;SDS011;61643;49.564;17.412;2023-07-30T08:05:21;2.28;;;1.90;;
73428;SDS011;61643;49.564;17.412;2023-07-30T08:07:47;3.22;;;1.80;;
73428;SDS011;61643;49.564;17.412;2023-07-30T08:10:13;2.25;;;1.80;;
73428;SDS011;61643;49.564;17.412;2023-07-30T08:12:39;1.80;;;1.60;;
73428;SDS011;61643;49.564;17.412;2023-07-30T08:15:05;2.10;;;1.90;;
73428;SDS011;61643;49.564;17.412;2023-07-30T08:17:31;2.40;;;1.70;;
73428;SDS011;61643;49.564;17.412;2023-07-30T08:19:58;2.53;;;1.90;;
73428;SDS011;61643;49.564;17.412;2023-07-30T08:22:23;2.00;;;1.80;;
73428;SDS011;61643;49.564;17.412;2023-07-30T08:24:49;2.08;;;1.67;;
73428;SDS011;61643;49.564;17.412;2023-07-30T08:27:15;1.95;;;1.73;;
73428;SDS011;61643;49.564;17.412;2023-07-30T08:29:41;2.15;;;1.60;;
73428;SDS011;61643;49.564;17.412;2023-07-30T08:32:07;4.07;;;1.55;;
73428;SDS011;61643;49.564;17.412;2023-07-30T08:34:33;1.83;;;1.50;;
73428;SDS011;61643;49.564;17.412;2023-07-30T08:36:59;2.65;;;1.85;;
73428;SDS011;61643;49.564;17.412;2023-07-30T08:39:25;3.63;;;1.90;;
73428;SDS011;61643;49.564;17.412;2023-07-30T08:41:51;2.03;;;1.75;;
73428;SDS011;61643;49.564;17.412;2023-07-30T08:44:17;1.77;;;1.40;;
73428;SDS011;61643;49.564;17.412;2023-07-30T08:46:43;2.42;;;1.92;;
73428;SDS011;61643;49.564;17.412;2023-07-30T08:49:09;2.63;;;1.70;;
73428;SDS011;61643;49.564;17.412;2023-07-30T08:51:36;2.08;;;1.70;;
73428;SDS011;61643;49.564;17.412;2023-07-30T08:54:03;1.98;;;1.70;;
73428;SDS011;61643;49.564;17.412;2023-07-30T08:56:30;4.28;;;1.67;;
73428;SDS011;61643;49.564;17.412;2023-07-30T08:58:57;3.80;;;1.85;;
73428;SDS011;61643;49.564;17.412;2023-07-30T09:01:27;9.50;;;1.83;;
73428;SDS011;61643;49.564;17.412;2023-07-30T09:03:59;1.95;;;1.60;;
73428;SDS011;61643;49.564;17.412;2023-07-30T09:06:28;1.50;;;1.35;;
73428;SDS011;61643;49.564;17.412;2023-07-30T09:08:54;5.38;;;2.15;;
73428;SDS011;61643;49.564;17.412;2023-07-30T09:11:20;5.40;;;1.85;;
73428;SDS011;61643;49.564;17.412;2023-07-30T09:13:52;3.83;;;1.70;;
73428;SDS011;61643;49.564;17.412;2023-07-30T09:16:19;2.60;;;1.65;;
73428;SDS011;61643;49.564;17.412;2023-07-30T09:18:50;2.58;;;1.70;;
73428;SDS011;61643;49.564;17.412;2023-07-30T09:21:18;2.58;;;1.80;;
73428;SDS011;61643;49.564;17.412;2023-07-30T09:23:45;2.05;;;1.60;;
73428;SDS011;61643;49.564;17.412;2023-07-30T09:26:12;6.72;;;4.43;;
73428;SDS011;61643;49.564;17.412;2023-07-30T09:28:39;1.92;;;1.50;;
73428;SDS011;61643;49.564;17.412;2023-07-30T09:31:07;3.08;;;1.63;;
73428;SDS011;61643;49.564;17.412;2023-07-30T09:33:34;4.32;;;1.63;;
73428;SDS011;61643;49.564;17.412;2023-07-30T09:36:07;2.20;;;1.50;;
73428;SDS011;61643;49.564;17.412;2023-07-30T09:38:39;1.88;;;1.60;;
73428;SDS011;61643;49.564;17.412;2023-07-30T09:41:07;2.22;;;1.70;;
73428;SDS011;61643;49.564;17.412;2023-07-30T09:43:33;3.63;;;1.90;;
73428;SDS011;61643;49.564;17.412;2023-07-30T09:46:01;2.00;;;1.77;;
73428;SDS011;61643;49.564;17.412;2023-07-30T09:48:31;2.00;;;1.80;;
73428;SDS011;61643;49.564;17.412;2023-07-30T09:51:01;4.28;;;2.08;;
73428;SDS011;61643;49.564;17.412;2023-07-30T09:53:32;4.55;;;3.00;;
73428;SDS011;61643;49.564;17.412;2023-07-30T09:56:02;3.97;;;2.72;;
73428;SDS011;61643;49.564;17.412;2023-07-30T09:58:29;2.60;;;2.08;;
73428;SDS011;61643;49.564;17.412;2023-07-30T10:00:59;3.00;;;2.03;;
73428;SDS011;61643;49.564;17.412;2023-07-30T10:03:26;2.15;;;1.70;;
73428;SDS011;61643;49.564;17.412;2023-07-30T10:05:56;2.95;;;1.90;;
73428;SDS011;61643;49.564;17.412;2023-07-30T10:08:29;2.45;;;2.03;;
73428;SDS011;61643;49.564;17.412;2023-07-30T10:10:59;3.67;;;2.30;;
73428;SDS011;61643;49.564;17.412;2023-07-30T10:13:28;2.70;;;2.28;;
73428;SDS011;61643;49.564;17.412;2023-07-30T10:15:58;2.75;;;1.90;;
73428;SDS011;61643;49.564;17.412;2023-07-30T10:18:38;5.32;;;2.45;;
73428;SDS011;61643;49.564;17.412;2023-07-30T10:21:06;4.10;;;2.45;;
73428;SDS011;61643;49.564;17.412;2023-07-30T10:23:33;5.47;;;2.50;;
73428;SDS011;61643;49.564;17.412;2023-07-30T10:26:00;5.30;;;2.83;;
73428;SDS011;61643;49.564;17.412;2023-07-30T10:28:35;3.33;;;2.60;;
73428;SDS011;61643;49.564;17.412;2023-07-30T10:31:07;3.05;;;2.50;;
73428;SDS011;61643;49.564;17.412;2023-07-30T10:33:44;3.20;;;2.38;;
73428;SDS011;61643;49.564;17.412;2023-07-30T10:36:10;2.85;;;2.25;;
73428;SDS011;61643;49.564;17.412;2023-07-30T10:38:36;3.45;;;2.30;;
73428;SDS011;61643;49.564;17.412;2023-07-30T10:41:14;2.50;;;2.10;;
73428;SDS011;61643;49.564;17.412;2023-07-30T10:43:48;3.85;;;2.53;;
73428;SDS011;61643;49.564;17.412;2023-07-30T10:46:16;3.15;;;2.08;;
73428;SDS011;61643;49.564;17.412;2023-07-30T10:48:43;3.13;;;2.22;;
73428;SDS011;61643;49.564;17.412;2023-07-30T10:51:15;4.45;;;2.58;;
73428;SDS011;61643;49.564;17.412;2023-07-30T10:53:42;4.05;;;2.50;;
73428;SDS011;61643;49.564;17.412;2023-07-30T10:56:13;3.80;;;2.28;;
73428;SDS011;61643;49.564;17.412;2023-07-30T10:58:41;3.88;;;2.00;;
73428;SDS011;61643;49.564;17.412;2023-07-30T11:01:08;3.20;;;1.50;;
73428;SDS011;61643;49.564;17.412;2023-07-30T11:03:35;3.17;;;1.88;;
73428;SDS011;61643;49.564;17.412;2023-07-30T11:06:02;4.15;;;1.80;;
73428;SDS011;61643;49.564;17.412;2023-07-30T11:08:37;2.70;;;1.85;;
73428;SDS011;61643;49.564;17.412;2023-07-30T11:11:05;4.43;;;2.13;;
73428;SDS011;61643;49.564;17.412;2023-07-30T11:16:06;2.05;;;1.60;;
73428;SDS011;61643;49.564;17.412;2023-07-30T11:18:34;2.97;;;1.80;;
73428;SDS011;61643;49.564;17.412;2023-07-30T11:21:08;3.90;;;1.80;;
73428;SDS011;61643;49.564;17.412;2023-07-30T11:23:36;3.38;;;1.92;;
73428;SDS011;61643;49.564;17.412;2023-07-30T11:26:03;3.03;;;1.70;;
73428;SDS011;61643;49.564;17.412;2023-07-30T11:28:37;4.65;;;2.10;;
73428;SDS011;61643;49.564;17.412;2023-07-30T11:31:05;4.22;;;1.85;;
73428;SDS011;61643;49.564;17.412;2023-07-30T11:33:38;2.30;;;1.70;;
73428;SDS011;61643;49.564;17.412;2023-07-30T11:36:12;4.03;;;1.90;;
73428;SDS011;61643;49.564;17.412;2023-07-30T11:38:40;2.45;;;2.03;;
73428;SDS011;61643;49.564;17.412;2023-07-30T11:41:08;6.45;;;2.17;;
73428;SDS011;61643;49.564;17.412;2023-07-30T11:49:16;4.78;;;2.28;;
73428;SDS011;61643;49.564;17.412;2023-07-30T11:51:43;5.70;;;1.83;;
73428;SDS011;61643;49.564;17.412;2023-07-30T11:54:22;5.90;;;0.90;;
73428;SDS011;61643;49.564;17.412;2023-07-30T11:56:57;2.67;;;0.63;;
73428;SDS011;61643;49.564;17.412;2023-07-30T11:59:23;4.20;;;0.60;;
73428;SDS011;61643;49.564;17.412;2023-07-30T12:01:49;5.97;;;0.70;;
73428;SDS011;61643;49.564;17.412;2023-07-30T12:04:15;4.00;;;0.75;;
73428;SDS011;61643;49.564;17.412;2023-07-30T12:06:41;5.68;;;0.98;;
73428;SDS011;61643;49.564;17.412;2023-07-30T12:09:17;1.85;;;0.70;;
73428;SDS011;61643;49.564;17.412;2023-07-30T12:14:22;2.25;;;0.82;;
73428;SDS011;61643;49.564;17.412;2023-07-30T12:16:51;2.70;;;1.13;;
73428;SDS011;61643;49.564;17.412;2023-07-30T12:19:17;4.32;;;0.73;;
73428;SDS011;61643;49.564;17.412;2023-07-30T12:21:43;3.17;;;0.73;;
73428;SDS011;61643;49.564;17.412;2023-07-30T12:24:09;1.60;;;0.98;;
73428;SDS011;61643;49.564;17.412;2023-07-30T12:26:35;3.42;;;0.80;;
73428;SDS011;61643;49.564;17.412;2023-07-30T12:29:01;3.33;;;0.80;;
73428;SDS011;61643;49.564;17.412;2023-07-30T12:31:27;7.57;;;1.10;;
73428;SDS011;61643;49.564;17.412;2023-07-30T12:33:53;3.22;;;0.88;;
73428;SDS011;61643;49.564;17.412;2023-07-30T12:36:19;2.25;;;0.68;;
73428;SDS011;61643;49.564;17.412;2023-07-30T12:38:44;4.57;;;0.80;;
73428;SDS011;61643;49.564;17.412;2023-07-30T12:41:10;1.55;;;0.88;;
73428;SDS011;61643;49.564;17.412;2023-07-30T12:43:36;5.85;;;0.80;;
73428;SDS011;61643;49.564;17.412;2023-07-30T12:46:02;7.97;;;1.10;;
73428;SDS011;61643;49.564;17.412;2023-07-30T12:48:28;2.92;;;0.93;;
73428;SDS011;61643;49.564;17.412;2023-07-30T12:50:54;3.72;;;0.60;;
73428;SDS011;61643;49.564;17.412;2023-07-30T12:53:20;2.00;;;0.65;;
73428;SDS011;61643;49.564;17.412;2023-07-30T12:55:46;5.07;;;0.77;;
73428;SDS011;61643;49.564;17.412;2023-07-30T12:58:12;4.60;;;0.80;;
73428;SDS011;61643;49.564;17.412;2023-07-30T13:00:38;7.88;;;0.95;;
73428;SDS011;61643;49.564;17.412;2023-07-30T13:03:04;4.47;;;0.73;;
73428;SDS011;61643;49.564;17.412;2023-07-30T13:05:30;5.53;;;0.70;;
73428;SDS011;61643;49.564;17.412;2023-07-30T13:07:56;2.15;;;0.55;;
73428;SDS011;61643;49.564;17.412;2023-07-30T13:10:22;2.85;;;0.80;;
73428;SDS011;61643;49.564;17.412;2023-07-30T13:12:48;2.80;;;0.70;;
73428;SDS011;61643;49.564;17.412;2023-07-30T13:15:14;1.77;;;0.68;;
73428;SDS011;61643;49.564;17.412;2023-07-30T13:17:40;2.47;;;0.57;;
73428;SDS011;61643;49.564;17.412;2023-07-30T13:20:06;1.33;;;0.43;;
73428;SDS011;61643;49.564;17.412;2023-07-30T13:22:32;2.30;;;0.60;;
73428;SDS011;61643;49.564;17.412;2023-07-30T13:24:58;0.60;;;0.50;;
73428;SDS011;61643;49.564;17.412;2023-07-30T13:27:24;1.13;;;0.60;;
73428;SDS011;61643;49.564;17.412;2023-07-30T13:29:50;0.98;;;0.40;;
73428;SDS011;61643;49.564;17.412;2023-07-30T13:32:16;1.38;;;0.50;;
73428;SDS011;61643;49.564;17.412;2023-07-30T13:34:43;1.38;;;0.30;;
73428;SDS011;61643;49.564;17.412;2023-07-30T13:37:09;1.50;;;0.40;;
73428;SDS011;61643;49.564;17.412;2023-07-30T13:39:35;1.45;;;0.45;;
73428;SDS011;61643;49.564;17.412;2023-07-30T13:42:01;1.70;;;0.40;;
73428;SDS011;61643;49.564;17.412;2023-07-30T13:44:27;0.50;;;0.38;;
73428;SDS011;61643;49.564;17.412;2023-07-30T13:46:53;0.95;;;0.45;;
73428;SDS011;61643;49.564;17.412;2023-07-30T13:49:19;0.40;;;0.40;;
73428;SDS011;61643;49.564;17.412;2023-07-30T13:51:45;0.93;;;0.40;;
73428;SDS011;61643;49.564;17.412;2023-07-30T13:54:11;0.73;;;0.50;;
73428;SDS011;61643;49.564;17.412;2023-07-30T13:56:37;1.75;;;0.50;;
73428;SDS011;61643;49.564;17.412;2023-07-30T13:59:04;0.60;;;0.60;;
73428;SDS011;61643;49.564;17.412;2023-07-30T14:01:30;1.15;;;0.40;;
73428;SDS011;61643;49.564;17.412;2023-07-30T14:03:56;0.40;;;0.40;;
73428;SDS011;61643;49.564;17.412;2023-07-30T14:06:22;1.27;;;0.50;;
73428;SDS011;61643;49.564;17.412;2023-07-30T14:08:48;0.43;;;0.40;;
73428;SDS011;61643;49.564;17.412;2023-07-30T14:11:15;0.60;;;0.50;;
73428;SDS011;61643;49.564;17.412;2023-07-30T14:13:40;0.80;;;0.47;;
73428;SDS011;61643;49.564;17.412;2023-07-30T14:16:06;1.63;;;0.60;;
73428;SDS011;61643;49.564;17.412;2023-07-30T14:18:32;3.13;;;0.68;;
73428;SDS011;61643;49.564;17.412;2023-07-30T14:20:58;0.57;;;0.40;;
73428;SDS011;61643;49.564;17.412;2023-07-30T14:23:24;1.35;;;0.52;;
73428;SDS011;61643;49.564;17.412;2023-07-30T14:25:50;0.55;;;0.50;;
73428;SDS011;61643;49.564;17.412;2023-07-30T14:28:16;1.33;;;0.70;;
73428;SDS011;61643;49.564;17.412;2023-07-30T14:30:42;0.40;;;0.40;;
73428;SDS011;61643;49.564;17.412;2023-07-30T14:33:10;0.60;;;0.50;;
73428;SDS011;61643;49.564;17.412;2023-07-30T14:35:36;1.33;;;0.70;;
73428;SDS011;61643;49.564;17.412;2023-07-30T14:38:04;0.98;;;0.50;;
73428;SDS011;61643;49.564;17.412;2023-07-30T14:40:30;1.30;;;0.50;;
73428;SDS011;61643;49.564;17.412;2023-07-30T14:42:56;1.23;;;0.43;;